Terminal Aerodrome Forecast
Issued by NWS Mt. Holly, NJ

Home | Current Version | Previous Version | Text Only | Print | Product List | Glossary On
Versions: 1 2 3 4 5 6 7 8 9 10 11 12 13
000
FTUS41 KPHI 230500
TAFTTN
TAF
KTTN 230539Z 2306/2406 19005KT P6SM FEW250
      TEMPO 2308/2312 4SM BR
     FM231300 25008KT P6SM SCT050
      TEMPO 2400/2403 4SM TSRA BKN035CB
     FM240300 28003KT P6SM BKN050=

USA.gov is the U.S. government's official web portal to all federal, state and local government web resources and services.